sensor_id;sensor_type;location;lat;lon;timestamp;P1;durP1;ratioP1;P2;durP2;ratioP2
12437;SDS011;6283;51.330;12.374;2023-07-02T00:01:48;1.80;;;1.70;;
12437;SDS011;6283;51.330;12.374;2023-07-02T00:04:14;2.05;;;1.85;;
12437;SDS011;6283;51.330;12.374;2023-07-02T00:06:46;2.08;;;1.67;;
12437;SDS011;6283;51.330;12.374;2023-07-02T00:09:12;1.92;;;1.83;;
12437;SDS011;6283;51.330;12.374;2023-07-02T00:11:38;2.03;;;1.92;;
12437;SDS011;6283;51.330;12.374;2023-07-02T00:14:07;1.80;;;1.70;;
12437;SDS011;6283;51.330;12.374;2023-07-02T00:16:38;1.65;;;1.55;;
12437;SDS011;6283;51.330;12.374;2023-07-02T00:19:05;1.70;;;1.60;;
12437;SDS011;6283;51.330;12.374;2023-07-02T00:21:31;1.90;;;1.80;;
12437;SDS011;6283;51.330;12.374;2023-07-02T00:23:57;1.70;;;1.60;;
12437;SDS011;6283;51.330;12.374;2023-07-02T00:26:24;2.00;;;1.90;;
12437;SDS011;6283;51.330;12.374;2023-07-02T00:28:50;2.35;;;1.85;;
12437;SDS011;6283;51.330;12.374;2023-07-02T00:31:16;1.60;;;1.50;;
12437;SDS011;6283;51.330;12.374;2023-07-02T00:33:42;1.88;;;1.77;;
12437;SDS011;6283;51.330;12.374;2023-07-02T00:36:07;1.52;;;1.42;;
12437;SDS011;6283;51.330;12.374;2023-07-02T00:38:38;1.85;;;1.75;;
12437;SDS011;6283;51.330;12.374;2023-07-02T00:41:03;1.80;;;1.70;;
12437;SDS011;6283;51.330;12.374;2023-07-02T00:43:29;1.75;;;1.40;;
12437;SDS011;6283;51.330;12.374;2023-07-02T00:45:55;1.90;;;1.80;;
12437;SDS011;6283;51.330;12.374;2023-07-02T00:48:21;2.58;;;1.60;;
12437;SDS011;6283;51.330;12.374;2023-07-02T00:50:47;3.15;;;1.88;;
12437;SDS011;6283;51.330;12.374;2023-07-02T00:53:12;1.80;;;1.55;;
12437;SDS011;6283;51.330;12.374;2023-07-02T00:55:38;3.20;;;1.98;;
12437;SDS011;6283;51.330;12.374;2023-07-02T00:58:04;1.63;;;1.52;;
12437;SDS011;6283;51.330;12.374;2023-07-02T01:00:29;1.80;;;1.70;;
12437;SDS011;6283;51.330;12.374;2023-07-02T01:02:55;2.00;;;1.80;;
12437;SDS011;6283;51.330;12.374;2023-07-02T01:05:30;2.13;;;1.63;;
12437;SDS011;6283;51.330;12.374;2023-07-02T01:08:02;1.90;;;1.80;;
12437;SDS011;6283;51.330;12.374;2023-07-02T01:10:28;1.88;;;1.77;;
12437;SDS011;6283;51.330;12.374;2023-07-02T01:12:56;1.80;;;1.70;;
12437;SDS011;6283;51.330;12.374;2023-07-02T01:15:25;2.00;;;1.90;;
12437;SDS011;6283;51.330;12.374;2023-07-02T01:17:51;1.80;;;1.70;;
12437;SDS011;6283;51.330;12.374;2023-07-02T01:20:18;4.22;;;2.00;;
12437;SDS011;6283;51.330;12.374;2023-07-02T01:22:45;2.33;;;2.10;;
12437;SDS011;6283;51.330;12.374;2023-07-02T01:25:11;1.90;;;1.80;;
12437;SDS011;6283;51.330;12.374;2023-07-02T01:27:37;1.67;;;1.58;;
12437;SDS011;6283;51.330;12.374;2023-07-02T01:30:03;2.00;;;1.90;;
12437;SDS011;6283;51.330;12.374;2023-07-02T01:32:29;1.90;;;1.80;;
12437;SDS011;6283;51.330;12.374;2023-07-02T01:34:55;2.10;;;1.90;;
12437;SDS011;6283;51.330;12.374;2023-07-02T01:37:20;2.17;;;1.90;;
12437;SDS011;6283;51.330;12.374;2023-07-02T01:39:50;1.88;;;1.77;;
12437;SDS011;6283;51.330;12.374;2023-07-02T01:42:16;2.10;;;1.90;;
12437;SDS011;6283;51.330;12.374;2023-07-02T01:44:44;2.30;;;2.10;;
12437;SDS011;6283;51.330;12.374;2023-07-02T01:47:11;1.88;;;1.77;;
12437;SDS011;6283;51.330;12.374;2023-07-02T01:49:37;2.90;;;2.58;;
12437;SDS011;6283;51.330;12.374;2023-07-02T01:52:03;2.13;;;2.03;;
12437;SDS011;6283;51.330;12.374;2023-07-02T01:54:29;2.22;;;1.70;;
12437;SDS011;6283;51.330;12.374;2023-07-02T01:56:57;2.25;;;2.05;;
12437;SDS011;6283;51.330;12.374;2023-07-02T01:59:23;1.60;;;1.42;;
12437;SDS011;6283;51.330;12.374;2023-07-02T02:01:49;1.67;;;1.58;;
12437;SDS011;6283;51.330;12.374;2023-07-02T02:04:15;1.95;;;1.85;;
12437;SDS011;6283;51.330;12.374;2023-07-02T02:06:41;2.05;;;1.70;;
12437;SDS011;6283;51.330;12.374;2023-07-02T02:09:07;4.30;;;1.70;;
12437;SDS011;6283;51.330;12.374;2023-07-02T02:11:34;2.47;;;1.85;;
12437;SDS011;6283;51.330;12.374;2023-07-02T02:14:03;2.15;;;1.95;;
12437;SDS011;6283;51.330;12.374;2023-07-02T02:16:28;2.58;;;1.90;;
12437;SDS011;6283;51.330;12.374;2023-07-02T02:18:54;2.67;;;2.17;;
12437;SDS011;6283;51.330;12.374;2023-07-02T02:21:20;3.28;;;1.95;;
12437;SDS011;6283;51.330;12.374;2023-07-02T02:23:46;2.60;;;2.40;;
12437;SDS011;6283;51.330;12.374;2023-07-02T02:26:13;2.33;;;2.13;;
12437;SDS011;6283;51.330;12.374;2023-07-02T02:28:39;2.05;;;1.90;;
12437;SDS011;6283;51.330;12.374;2023-07-02T02:31:06;2.70;;;2.50;;
12437;SDS011;6283;51.330;12.374;2023-07-02T02:33:32;2.50;;;2.30;;
12437;SDS011;6283;51.330;12.374;2023-07-02T02:35:58;5.38;;;2.13;;
12437;SDS011;6283;51.330;12.374;2023-07-02T02:38:23;2.72;;;2.53;;
12437;SDS011;6283;51.330;12.374;2023-07-02T02:40:49;3.50;;;2.30;;
12437;SDS011;6283;51.330;12.374;2023-07-02T02:43:15;2.58;;;2.03;;
12437;SDS011;6283;51.330;12.374;2023-07-02T02:45:42;2.42;;;2.20;;
12437;SDS011;6283;51.330;12.374;2023-07-02T02:48:08;2.72;;;2.47;;
12437;SDS011;6283;51.330;12.374;2023-07-02T02:50:33;2.90;;;2.60;;
12437;SDS011;6283;51.330;12.374;2023-07-02T02:52:59;2.20;;;2.10;;
12437;SDS011;6283;51.330;12.374;2023-07-02T02:55:25;2.30;;;2.13;;
12437;SDS011;6283;51.330;12.374;2023-07-02T02:57:51;2.90;;;2.70;;
12437;SDS011;6283;51.330;12.374;2023-07-02T03:00:17;3.03;;;2.63;;
12437;SDS011;6283;51.330;12.374;2023-07-02T03:02:42;4.53;;;2.60;;
12437;SDS011;6283;51.330;12.374;2023-07-02T03:05:08;3.30;;;2.58;;
12437;SDS011;6283;51.330;12.374;2023-07-02T03:07:34;2.65;;;2.45;;
12437;SDS011;6283;51.330;12.374;2023-07-02T03:10:00;2.90;;;2.58;;
12437;SDS011;6283;51.330;12.374;2023-07-02T03:12:26;2.92;;;2.63;;
12437;SDS011;6283;51.330;12.374;2023-07-02T03:14:52;3.00;;;2.80;;
12437;SDS011;6283;51.330;12.374;2023-07-02T03:17:20;2.90;;;2.70;;
12437;SDS011;6283;51.330;12.374;2023-07-02T03:19:46;2.88;;;2.67;;
12437;SDS011;6283;51.330;12.374;2023-07-02T03:22:11;3.78;;;3.03;;
12437;SDS011;6283;51.330;12.374;2023-07-02T03:24:37;4.78;;;2.83;;
12437;SDS011;6283;51.330;12.374;2023-07-02T03:27:03;2.80;;;2.60;;
12437;SDS011;6283;51.330;12.374;2023-07-02T03:29:29;3.00;;;2.80;;
12437;SDS011;6283;51.330;12.374;2023-07-02T03:31:55;2.80;;;2.60;;
12437;SDS011;6283;51.330;12.374;2023-07-02T03:34:21;3.65;;;2.55;;
12437;SDS011;6283;51.330;12.374;2023-07-02T03:36:49;4.00;;;2.45;;
12437;SDS011;6283;51.330;12.374;2023-07-02T03:39:15;2.83;;;2.63;;
12437;SDS011;6283;51.330;12.374;2023-07-02T03:41:42;2.60;;;2.40;;
12437;SDS011;6283;51.330;12.374;2023-07-02T03:44:08;2.38;;;2.28;;
12437;SDS011;6283;51.330;12.374;2023-07-02T03:46:34;2.60;;;2.38;;
12437;SDS011;6283;51.330;12.374;2023-07-02T03:49:00;2.15;;;1.95;;
12437;SDS011;6283;51.330;12.374;2023-07-02T03:51:26;2.60;;;2.40;;
12437;SDS011;6283;51.330;12.374;2023-07-02T03:53:51;2.85;;;2.38;;
12437;SDS011;6283;51.330;12.374;2023-07-02T03:56:17;2.78;;;2.55;;
12437;SDS011;6283;51.330;12.374;2023-07-02T03:58:43;2.22;;;2.03;;
12437;SDS011;6283;51.330;12.374;2023-07-02T04:01:08;3.47;;;2.30;;
12437;SDS011;6283;51.330;12.374;2023-07-02T04:03:34;2.67;;;2.47;;
12437;SDS011;6283;51.330;12.374;2023-07-02T04:05:59;2.97;;;2.60;;
12437;SDS011;6283;51.330;12.374;2023-07-02T04:08:25;2.35;;;2.25;;
12437;SDS011;6283;51.330;12.374;2023-07-02T04:10:53;3.00;;;2.58;;
12437;SDS011;6283;51.330;12.374;2023-07-02T04:13:19;2.75;;;2.55;;
12437;SDS011;6283;51.330;12.374;2023-07-02T04:15:45;3.58;;;2.30;;
12437;SDS011;6283;51.330;12.374;2023-07-02T04:18:10;2.72;;;2.53;;
12437;SDS011;6283;51.330;12.374;2023-07-02T04:20:36;2.10;;;2.00;;
12437;SDS011;6283;51.330;12.374;2023-07-02T04:23:03;2.40;;;2.20;;
12437;SDS011;6283;51.330;12.374;2023-07-02T04:25:29;3.22;;;2.35;;
12437;SDS011;6283;51.330;12.374;2023-07-02T04:27:55;2.40;;;2.20;;
12437;SDS011;6283;51.330;12.374;2023-07-02T04:30:22;2.40;;;2.20;;
12437;SDS011;6283;51.330;12.374;2023-07-02T04:32:47;3.55;;;2.38;;
12437;SDS011;6283;51.330;12.374;2023-07-02T04:35:13;2.22;;;2.10;;
12437;SDS011;6283;51.330;12.374;2023-07-02T04:37:39;2.70;;;2.50;;
12437;SDS011;6283;51.330;12.374;2023-07-02T04:40:05;3.80;;;2.50;;
12437;SDS011;6283;51.330;12.374;2023-07-02T04:42:37;2.65;;;2.45;;
12437;SDS011;6283;51.330;12.374;2023-07-02T04:45:04;3.55;;;2.70;;
12437;SDS011;6283;51.330;12.374;2023-07-02T04:47:31;4.50;;;2.60;;
12437;SDS011;6283;51.330;12.374;2023-07-02T04:49:57;2.63;;;2.42;;
12437;SDS011;6283;51.330;12.374;2023-07-02T04:52:22;2.70;;;2.50;;
12437;SDS011;6283;51.330;12.374;2023-07-02T04:54:48;3.03;;;2.78;;
12437;SDS011;6283;51.330;12.374;2023-07-02T04:57:14;3.00;;;2.80;;
12437;SDS011;6283;51.330;12.374;2023-07-02T04:59:41;2.95;;;2.70;;
12437;SDS011;6283;51.330;12.374;2023-07-02T05:02:07;2.97;;;2.70;;
12437;SDS011;6283;51.330;12.374;2023-07-02T05:04:32;3.15;;;2.85;;
12437;SDS011;6283;51.330;12.374;2023-07-02T05:06:59;2.92;;;2.60;;
12437;SDS011;6283;51.330;12.374;2023-07-02T05:09:25;3.20;;;3.00;;
12437;SDS011;6283;51.330;12.374;2023-07-02T05:11:50;4.28;;;3.03;;
12437;SDS011;6283;51.330;12.374;2023-07-02T05:14:16;3.33;;;2.85;;
12437;SDS011;6283;51.330;12.374;2023-07-02T05:16:42;3.90;;;3.00;;
12437;SDS011;6283;51.330;12.374;2023-07-02T05:19:07;2.97;;;2.78;;
12437;SDS011;6283;51.330;12.374;2023-07-02T05:21:33;7.97;;;3.70;;
12437;SDS011;6283;51.330;12.374;2023-07-02T05:23:58;4.78;;;3.20;;
12437;SDS011;6283;51.330;12.374;2023-07-02T05:26:24;3.53;;;3.20;;
12437;SDS011;6283;51.330;12.374;2023-07-02T05:28:51;3.47;;;3.17;;
12437;SDS011;6283;51.330;12.374;2023-07-02T05:31:16;2.90;;;2.70;;
12437;SDS011;6283;51.330;12.374;2023-07-02T05:33:42;3.78;;;3.33;;
12437;SDS011;6283;51.330;12.374;2023-07-02T05:36:07;4.28;;;3.92;;
12437;SDS011;6283;51.330;12.374;2023-07-02T05:38:33;3.80;;;3.55;;
12437;SDS011;6283;51.330;12.374;2023-07-02T05:40:59;4.10;;;3.80;;
12437;SDS011;6283;51.330;12.374;2023-07-02T05:43:24;4.20;;;3.90;;
12437;SDS011;6283;51.330;12.374;2023-07-02T05:45:50;4.10;;;3.80;;
12437;SDS011;6283;51.330;12.374;2023-07-02T05:48:17;4.22;;;3.92;;
12437;SDS011;6283;51.330;12.374;2023-07-02T05:50:43;4.32;;;3.92;;
12437;SDS011;6283;51.330;12.374;2023-07-02T05:53:08;4.18;;;3.85;;
12437;SDS011;6283;51.330;12.374;2023-07-02T05:55:34;4.80;;;4.05;;
12437;SDS011;6283;51.330;12.374;2023-07-02T05:58:00;4.20;;;3.90;;
12437;SDS011;6283;51.330;12.374;2023-07-02T06:00:27;4.22;;;3.83;;
12437;SDS011;6283;51.330;12.374;2023-07-02T06:02:53;4.95;;;4.45;;
12437;SDS011;6283;51.330;12.374;2023-07-02T06:05:19;4.45;;;4.15;;
12437;SDS011;6283;51.330;12.374;2023-07-02T06:07:45;4.57;;;4.22;;
12437;SDS011;6283;51.330;12.374;2023-07-02T06:10:11;4.50;;;4.10;;
12437;SDS011;6283;51.330;12.374;2023-07-02T06:12:36;6.25;;;3.97;;
12437;SDS011;6283;51.330;12.374;2023-07-02T06:15:02;4.13;;;3.75;;
12437;SDS011;6283;51.330;12.374;2023-07-02T06:17:28;4.13;;;3.83;;
12437;SDS011;6283;51.330;12.374;2023-07-02T06:19:56;4.32;;;3.92;;
12437;SDS011;6283;51.330;12.374;2023-07-02T06:22:22;4.53;;;3.80;;
12437;SDS011;6283;51.330;12.374;2023-07-02T06:24:48;3.97;;;3.67;;
12437;SDS011;6283;51.330;12.374;2023-07-02T06:27:14;4.40;;;4.10;;
12437;SDS011;6283;51.330;12.374;2023-07-02T06:29:39;3.95;;;3.65;;
12437;SDS011;6283;51.330;12.374;2023-07-02T06:32:05;3.70;;;3.40;;
12437;SDS011;6283;51.330;12.374;2023-07-02T06:34:31;3.58;;;3.25;;
12437;SDS011;6283;51.330;12.374;2023-07-02T06:36:57;3.10;;;2.90;;
12437;SDS011;6283;51.330;12.374;2023-07-02T06:39:22;3.67;;;3.20;;
12437;SDS011;6283;51.330;12.374;2023-07-02T06:41:48;3.17;;;2.85;;
12437;SDS011;6283;51.330;12.374;2023-07-02T06:44:14;3.65;;;3.17;;
12437;SDS011;6283;51.330;12.374;2023-07-02T06:46:39;3.22;;;3.03;;
12437;SDS011;6283;51.330;12.374;2023-07-02T06:49:05;3.10;;;2.90;;
12437;SDS011;6283;51.330;12.374;2023-07-02T06:51:31;3.15;;;2.78;;
12437;SDS011;6283;51.330;12.374;2023-07-02T06:53:58;3.22;;;2.90;;
12437;SDS011;6283;51.330;12.374;2023-07-02T06:56:24;3.45;;;3.15;;
12437;SDS011;6283;51.330;12.374;2023-07-02T06:58:49;4.03;;;3.40;;
12437;SDS011;6283;51.330;12.374;2023-07-02T07:01:15;4.30;;;2.95;;
12437;SDS011;6283;51.330;12.374;2023-07-02T07:03:41;3.00;;;2.70;;
12437;SDS011;6283;51.330;12.374;2023-07-02T07:06:06;5.78;;;3.13;;
12437;SDS011;6283;51.330;12.374;2023-07-02T07:08:32;3.20;;;2.80;;
12437;SDS011;6283;51.330;12.374;2023-07-02T07:10:58;3.13;;;2.92;;
12437;SDS011;6283;51.330;12.374;2023-07-02T07:13:23;3.17;;;2.90;;
12437;SDS011;6283;51.330;12.374;2023-07-02T07:15:49;2.90;;;2.70;;
12437;SDS011;6283;51.330;12.374;2023-07-02T07:18:14;3.88;;;2.53;;
12437;SDS011;6283;51.330;12.374;2023-07-02T07:20:41;2.35;;;2.13;;
12437;SDS011;6283;51.330;12.374;2023-07-02T07:23:07;2.30;;;2.10;;
12437;SDS011;6283;51.330;12.374;2023-07-02T07:25:32;2.20;;;2.00;;
12437;SDS011;6283;51.330;12.374;2023-07-02T07:27:59;2.00;;;1.90;;
12437;SDS011;6283;51.330;12.374;2023-07-02T07:30:24;2.15;;;2.05;;
12437;SDS011;6283;51.330;12.374;2023-07-02T07:32:50;2.05;;;1.70;;
12437;SDS011;6283;51.330;12.374;2023-07-02T07:35:17;2.33;;;1.90;;
12437;SDS011;6283;51.330;12.374;2023-07-02T07:37:43;2.03;;;1.90;;
12437;SDS011;6283;51.330;12.374;2023-07-02T07:40:09;2.28;;;2.08;;
12437;SDS011;6283;51.330;12.374;2023-07-02T07:42:36;4.13;;;2.58;;
12437;SDS011;6283;51.330;12.374;2023-07-02T07:45:02;2.40;;;2.10;;
12437;SDS011;6283;51.330;12.374;2023-07-02T07:47:28;2.40;;;2.20;;
12437;SDS011;6283;51.330;12.374;2023-07-02T07:49:54;2.03;;;1.90;;
12437;SDS011;6283;51.330;12.374;2023-07-02T07:52:20;2.08;;;1.90;;
12437;SDS011;6283;51.330;12.374;2023-07-02T07:54:46;2.10;;;1.90;;
12437;SDS011;6283;51.330;12.374;2023-07-02T07:57:11;1.90;;;1.80;;
12437;SDS011;6283;51.330;12.374;2023-07-02T07:59:37;2.08;;;1.92;;
12437;SDS011;6283;51.330;12.374;2023-07-02T08:02:02;2.30;;;1.90;;
12437;SDS011;6283;51.330;12.374;2023-07-02T08:04:28;2.15;;;1.95;;
12437;SDS011;6283;51.330;12.374;2023-07-02T08:06:54;2.80;;;1.70;;
12437;SDS011;6283;51.330;12.374;2023-07-02T08:09:21;1.90;;;1.80;;
12437;SDS011;6283;51.330;12.374;2023-07-02T08:11:48;1.80;;;1.70;;
12437;SDS011;6283;51.330;12.374;2023-07-02T08:14:14;1.95;;;1.63;;
12437;SDS011;6283;51.330;12.374;2023-07-02T08:16:41;11.82;;;2.03;;
12437;SDS011;6283;51.330;12.374;2023-07-02T08:19:06;1.88;;;1.77;;
12437;SDS011;6283;51.330;12.374;2023-07-02T08:21:32;1.92;;;1.83;;
12437;SDS011;6283;51.330;12.374;2023-07-02T08:23:58;1.70;;;1.60;;
12437;SDS011;6283;51.330;12.374;2023-07-02T08:26:23;3.55;;;1.65;;
12437;SDS011;6283;51.330;12.374;2023-07-02T08:28:49;2.08;;;1.60;;
12437;SDS011;6283;51.330;12.374;2023-07-02T08:31:15;2.10;;;1.90;;
12437;SDS011;6283;51.330;12.374;2023-07-02T08:33:41;2.55;;;1.50;;
12437;SDS011;6283;51.330;12.374;2023-07-02T08:36:07;2.05;;;1.83;;
12437;SDS011;6283;51.330;12.374;2023-07-02T08:38:32;1.60;;;1.50;;
12437;SDS011;6283;51.330;12.374;2023-07-02T08:40:58;3.35;;;2.00;;
12437;SDS011;6283;51.330;12.374;2023-07-02T08:43:24;2.08;;;1.90;;
12437;SDS011;6283;51.330;12.374;2023-07-02T08:45:52;2.75;;;2.00;;
12437;SDS011;6283;51.330;12.374;2023-07-02T08:48:18;2.70;;;2.00;;
12437;SDS011;6283;51.330;12.374;2023-07-02T08:50:49;2.20;;;1.60;;
12437;SDS011;6283;51.330;12.374;2023-07-02T08:53:15;4.90;;;2.20;;
12437;SDS011;6283;51.330;12.374;2023-07-02T08:55:41;2.67;;;1.95;;
12437;SDS011;6283;51.330;12.374;2023-07-02T08:58:07;3.95;;;1.90;;
12437;SDS011;6283;51.330;12.374;2023-07-02T09:00:32;2.00;;;1.80;;
12437;SDS011;6283;51.330;12.374;2023-07-02T09:03:12;2.03;;;1.92;;
12437;SDS011;6283;51.330;12.374;2023-07-02T09:05:47;2.10;;;1.90;;
12437;SDS011;6283;51.330;12.374;2023-07-02T09:08:26;2.22;;;2.03;;
12437;SDS011;6283;51.330;12.374;2023-07-02T09:10:53;1.80;;;1.60;;
12437;SDS011;6283;51.330;12.374;2023-07-02T09:13:41;2.00;;;1.90;;
12437;SDS011;6283;51.330;12.374;2023-07-02T09:16:08;2.58;;;1.90;;
12437;SDS011;6283;51.330;12.374;2023-07-02T09:18:54;2.95;;;2.20;;
12437;SDS011;6283;51.330;12.374;2023-07-02T09:21:20;3.40;;;2.10;;
12437;SDS011;6283;51.330;12.374;2023-07-02T09:23:47;2.30;;;2.10;;
12437;SDS011;6283;51.330;12.374;2023-07-02T09:26:19;3.33;;;2.05;;
12437;SDS011;6283;51.330;12.374;2023-07-02T09:28:48;2.95;;;2.28;;
12437;SDS011;6283;51.330;12.374;2023-07-02T09:31:13;3.95;;;2.47;;
12437;SDS011;6283;51.330;12.374;2023-07-02T09:33:39;2.25;;;2.15;;
12437;SDS011;6283;51.330;12.374;2023-07-02T09:36:05;5.80;;;2.38;;
12437;SDS011;6283;51.330;12.374;2023-07-02T09:38:31;3.53;;;2.33;;
12437;SDS011;6283;51.330;12.374;2023-07-02T09:40:57;3.47;;;2.45;;
12437;SDS011;6283;51.330;12.374;2023-07-02T09:43:23;2.35;;;2.15;;
12437;SDS011;6283;51.330;12.374;2023-07-02T09:45:50;2.75;;;2.20;;
12437;SDS011;6283;51.330;12.374;2023-07-02T09:48:19;2.67;;;2.40;;
12437;SDS011;6283;51.330;12.374;2023-07-02T09:50:50;3.78;;;2.22;;
12437;SDS011;6283;51.330;12.374;2023-07-02T09:53:16;2.67;;;2.47;;
12437;SDS011;6283;51.330;12.374;2023-07-02T09:55:42;3.28;;;2.97;;
12437;SDS011;6283;51.330;12.374;2023-07-02T09:58:09;2.85;;;2.65;;
12437;SDS011;6283;51.330;12.374;2023-07-02T10:00:36;3.22;;;2.92;;
12437;SDS011;6283;51.330;12.374;2023-07-02T10:03:03;4.47;;;2.80;;
12437;SDS011;6283;51.330;12.374;2023-07-02T10:05:29;3.42;;;3.13;;
12437;SDS011;6283;51.330;12.374;2023-07-02T10:08:11;3.15;;;2.95;;
12437;SDS011;6283;51.330;12.374;2023-07-02T10:10:38;3.85;;;3.55;;
12437;SDS011;6283;51.330;12.374;2023-07-02T10:13:07;3.58;;;3.28;;
12437;SDS011;6283;51.330;12.374;2023-07-02T10:15:33;3.42;;;3.13;;
12437;SDS011;6283;51.330;12.374;2023-07-02T10:18:02;3.85;;;3.40;;
12437;SDS011;6283;51.330;12.374;2023-07-02T10:20:33;4.45;;;3.65;;
12437;SDS011;6283;51.330;12.374;2023-07-02T10:23:04;3.55;;;2.85;;
12437;SDS011;6283;51.330;12.374;2023-07-02T10:25:31;3.78;;;3.42;;
12437;SDS011;6283;51.330;12.374;2023-07-02T10:28:00;4.82;;;3.03;;
12437;SDS011;6283;51.330;12.374;2023-07-02T10:30:33;3.50;;;3.20;;
12437;SDS011;6283;51.330;12.374;2023-07-02T10:35:39;4.53;;;3.33;;
12437;SDS011;6283;51.330;12.374;2023-07-02T10:38:07;4.93;;;2.90;;
12437;SDS011;6283;51.330;12.374;2023-07-02T10:40:39;3.70;;;3.28;;
12437;SDS011;6283;51.330;12.374;2023-07-02T10:43:04;3.80;;;3.45;;
12437;SDS011;6283;51.330;12.374;2023-07-02T10:45:32;3.88;;;3.30;;
12437;SDS011;6283;51.330;12.374;2023-07-02T10:48:01;6.28;;;4.05;;
12437;SDS011;6283;51.330;12.374;2023-07-02T10:50:45;5.22;;;3.05;;
12437;SDS011;6283;51.330;12.374;2023-07-02T10:53:17;4.00;;;3.60;;
12437;SDS011;6283;51.330;12.374;2023-07-02T10:55:43;5.07;;;3.72;;
12437;SDS011;6283;51.330;12.374;2023-07-02T10:58:10;3.85;;;3.45;;
12437;SDS011;6283;51.330;12.374;2023-07-02T11:00:46;4.80;;;3.40;;
12437;SDS011;6283;51.330;12.374;2023-07-02T11:03:16;4.55;;;3.47;;
12437;SDS011;6283;51.330;12.374;2023-07-02T11:05:45;4.18;;;3.78;;
12437;SDS011;6283;51.330;12.374;2023-07-02T11:08:11;5.57;;;3.75;;
12437;SDS011;6283;51.330;12.374;2023-07-02T11:10:37;4.90;;;4.40;;
12437;SDS011;6283;51.330;12.374;2023-07-02T11:13:10;6.50;;;4.43;;
12437;SDS011;6283;51.330;12.374;2023-07-02T11:15:39;5.65;;;4.60;;
12437;SDS011;6283;51.330;12.374;2023-07-02T11:18:13;6.30;;;4.22;;
12437;SDS011;6283;51.330;12.374;2023-07-02T11:20:41;8.13;;;5.28;;
12437;SDS011;6283;51.330;12.374;2023-07-02T11:25:53;6.20;;;4.47;;
12437;SDS011;6283;51.330;12.374;2023-07-02T11:28:23;6.72;;;5.13;;
12437;SDS011;6283;51.330;12.374;2023-07-02T11:30:49;6.35;;;5.18;;
12437;SDS011;6283;51.330;12.374;2023-07-02T11:33:15;7.30;;;4.82;;
12437;SDS011;6283;51.330;12.374;2023-07-02T11:35:40;6.68;;;5.53;;
12437;SDS011;6283;51.330;12.374;2023-07-02T11:38:08;5.45;;;4.82;;
12437;SDS011;6283;51.330;12.374;2023-07-02T11:40:35;6.32;;;4.80;;
12437;SDS011;6283;51.330;12.374;2023-07-02T11:43:01;6.82;;;5.53;;
12437;SDS011;6283;51.330;12.374;2023-07-02T11:45:27;6.53;;;5.00;;
12437;SDS011;6283;51.330;12.374;2023-07-02T11:47:53;6.88;;;5.18;;
12437;SDS011;6283;51.330;12.374;2023-07-02T11:50:19;8.60;;;5.20;;
12437;SDS011;6283;51.330;12.374;2023-07-02T11:52:45;8.27;;;5.20;;
12437;SDS011;6283;51.330;12.374;2023-07-02T11:55:11;11.27;;;5.40;;
12437;SDS011;6283;51.330;12.374;2023-07-02T11:57:37;8.40;;;5.53;;
12437;SDS011;6283;51.330;12.374;2023-07-02T12:00:03;6.68;;;5.10;;
12437;SDS011;6283;51.330;12.374;2023-07-02T12:02:29;7.85;;;5.38;;
12437;SDS011;6283;51.330;12.374;2023-07-02T12:04:55;5.68;;;5.03;;
12437;SDS011;6283;51.330;12.374;2023-07-02T12:07:20;7.30;;;5.18;;
12437;SDS011;6283;51.330;12.374;2023-07-02T12:09:46;6.60;;;5.03;;
12437;SDS011;6283;51.330;12.374;2023-07-02T12:12:12;6.35;;;5.10;;
12437;SDS011;6283;51.330;12.374;2023-07-02T12:14:38;11.10;;;4.90;;
12437;SDS011;6283;51.330;12.374;2023-07-02T12:17:08;8.52;;;5.40;;
12437;SDS011;6283;51.330;12.374;2023-07-02T12:19:34;10.15;;;5.38;;
12437;SDS011;6283;51.330;12.374;2023-07-02T12:21:59;6.50;;;5.40;;
12437;SDS011;6283;51.330;12.374;2023-07-02T12:24:25;5.15;;;4.55;;
12437;SDS011;6283;51.330;12.374;2023-07-02T12:26:50;6.43;;;5.18;;
12437;SDS011;6283;51.330;12.374;2023-07-02T12:29:16;7.95;;;5.15;;
12437;SDS011;6283;51.330;12.374;2023-07-02T12:31:42;6.50;;;4.70;;
12437;SDS011;6283;51.330;12.374;2023-07-02T12:34:07;9.23;;;4.85;;
12437;SDS011;6283;51.330;12.374;2023-07-02T12:36:33;6.97;;;5.07;;
12437;SDS011;6283;51.330;12.374;2023-07-02T12:38:58;7.70;;;5.47;;
12437;SDS011;6283;51.330;12.374;2023-07-02T12:41:24;5.20;;;4.70;;
12437;SDS011;6283;51.330;12.374;2023-07-02T12:43:53;9.18;;;5.45;;
12437;SDS011;6283;51.330;12.374;2023-07-02T12:46:18;7.85;;;4.80;;
12437;SDS011;6283;51.330;12.374;2023-07-02T12:48:44;6.50;;;5.35;;
12437;SDS011;6283;51.330;12.374;2023-07-02T12:51:10;8.05;;;5.53;;
12437;SDS011;6283;51.330;12.374;2023-07-02T12:53:36;7.57;;;5.22;;
12437;SDS011;6283;51.330;12.374;2023-07-02T12:56:01;6.00;;;5.38;;
12437;SDS011;6283;51.330;12.374;2023-07-02T12:58:29;7.78;;;5.57;;
12437;SDS011;6283;51.330;12.374;2023-07-02T13:00:55;8.88;;;5.05;;
12437;SDS011;6283;51.330;12.374;2023-07-02T13:03:21;7.93;;;5.20;;
12437;SDS011;6283;51.330;12.374;2023-07-02T13:05:51;7.28;;;5.40;;
12437;SDS011;6283;51.330;12.374;2023-07-02T13:08:19;9.40;;;5.35;;
12437;SDS011;6283;51.330;12.374;2023-07-02T13:10:45;9.15;;;5.95;;
12437;SDS011;6283;51.330;12.374;2023-07-02T13:13:11;8.57;;;5.80;;
12437;SDS011;6283;51.330;12.374;2023-07-02T13:15:36;6.25;;;5.03;;
12437;SDS011;6283;51.330;12.374;2023-07-02T13:18:08;9.02;;;5.50;;
12437;SDS011;6283;51.330;12.374;2023-07-02T13:20:33;9.38;;;5.70;;
12437;SDS011;6283;51.330;12.374;2023-07-02T13:22:59;10.38;;;6.07;;
12437;SDS011;6283;51.330;12.374;2023-07-02T13:25:25;10.50;;;5.88;;
12437;SDS011;6283;51.330;12.374;2023-07-02T13:27:50;9.25;;;6.22;;
12437;SDS011;6283;51.330;12.374;2023-07-02T13:30:16;9.10;;;6.53;;
12437;SDS011;6283;51.330;12.374;2023-07-02T13:32:42;11.68;;;5.93;;
12437;SDS011;6283;51.330;12.374;2023-07-02T13:35:08;7.95;;;5.97;;
12437;SDS011;6283;51.330;12.374;2023-07-02T13:37:33;9.65;;;6.15;;
12437;SDS011;6283;51.330;12.374;2023-07-02T13:39:59;8.98;;;6.28;;
12437;SDS011;6283;51.330;12.374;2023-07-02T13:42:24;8.35;;;6.15;;
12437;SDS011;6283;51.330;12.374;2023-07-02T13:44:50;9.38;;;6.53;;
12437;SDS011;6283;51.330;12.374;2023-07-02T13:47:16;8.15;;;6.13;;
12437;SDS011;6283;51.330;12.374;2023-07-02T13:49:41;9.43;;;6.07;;
12437;SDS011;6283;51.330;12.374;2023-07-02T13:52:08;9.98;;;6.43;;
12437;SDS011;6283;51.330;12.374;2023-07-02T13:54:34;13.18;;;6.75;;
12437;SDS011;6283;51.330;12.374;2023-07-02T13:57:00;9.73;;;6.32;;
12437;SDS011;6283;51.330;12.374;2023-07-02T13:59:25;7.15;;;6.00;;
12437;SDS011;6283;51.330;12.374;2023-07-02T14:01:51;12.77;;;7.00;;
12437;SDS011;6283;51.330;12.374;2023-07-02T14:04:17;9.48;;;6.93;;
12437;SDS011;6283;51.330;12.374;2023-07-02T14:06:44;11.88;;;6.82;;
12437;SDS011;6283;51.330;12.374;2023-07-02T14:09:09;11.32;;;6.95;;
12437;SDS011;6283;51.330;12.374;2023-07-02T14:11:38;9.23;;;6.53;;
12437;SDS011;6283;51.330;12.374;2023-07-02T14:14:05;10.25;;;6.50;;
12437;SDS011;6283;51.330;12.374;2023-07-02T14:16:31;11.40;;;6.60;;
12437;SDS011;6283;51.330;12.374;2023-07-02T14:18:57;8.45;;;6.35;;
12437;SDS011;6283;51.330;12.374;2023-07-02T14:21:22;13.57;;;7.63;;
12437;SDS011;6283;51.330;12.374;2023-07-02T14:23:48;11.70;;;6.72;;
12437;SDS011;6283;51.330;12.374;2023-07-02T14:26:14;13.20;;;7.30;;
12437;SDS011;6283;51.330;12.374;2023-07-02T14:28:40;13.80;;;8.15;;
12437;SDS011;6283;51.330;12.374;2023-07-02T14:31:06;12.70;;;6.97;;
12437;SDS011;6283;51.330;12.374;2023-07-02T14:33:32;10.55;;;7.13;;
12437;SDS011;6283;51.330;12.374;2023-07-02T14:36:00;10.55;;;6.70;;
12437;SDS011;6283;51.330;12.374;2023-07-02T14:38:26;10.43;;;7.10;;
12437;SDS011;6283;51.330;12.374;2023-07-02T14:40:52;10.65;;;6.40;;
12437;SDS011;6283;51.330;12.374;2023-07-02T14:43:19;9.80;;;6.63;;
12437;SDS011;6283;51.330;12.374;2023-07-02T14:45:48;12.10;;;7.13;;
12437;SDS011;6283;51.330;12.374;2023-07-02T14:48:15;8.35;;;6.55;;
12437;SDS011;6283;51.330;12.374;2023-07-02T14:50:45;8.80;;;7.43;;